^^
Saratoga-Weather Station Historical Data
 
Daily Summary for January 22, 2019 Units:  English    Metric   Both
Daily Weekly Monthly Yearly Custom
  Current: High: Low: Average:
Temperature: 31.7 °F 31.8 °F 30.5 °F 31.1 °F
Dew Point: 18.6 °F 18.8 °F 15.4 °F 17.6 °F
Humidity: 58% 59% 53% 57%
Wind Speed: 4.0mph 10.0mph 2.0mph 5.3mph
Wind Gust: 10.0mph 13.0mph - -
WindSSE - - SE
Pressure: 30.50 in 30.51 in 30.47 in -
Precipitation: 0.00 in      
Historical Graphs
 
 
Tabular Data for January 22, 2019
Time Temperature Dew Point Pressure Wind Wind Speed Wind Gust Humidity Rainfall Rate (Hourly) solar
00:04 30.5 °F 15.4 °F 30.47 in SE 2.0 mph 7.0 mph 53% 0.00 in 0.00 W/m2
00:09 30.5 °F 15.4 °F 30.47 in ESE 4.0 mph 7.0 mph 53% 0.00 in 0.00 W/m2
00:14 30.5 °F 15.9 °F 30.47 in South 3.0 mph 6.0 mph 54% 0.00 in 0.00 W/m2
00:19 30.6 °F 16.0 °F 30.48 in SSE 4.0 mph 8.0 mph 54% 0.00 in 0.00 W/m2
00:24 30.6 °F 16.0 °F 30.48 in SE 5.0 mph 8.0 mph 54% 0.00 in 0.00 W/m2
00:29 30.6 °F 16.0 °F 30.48 in ESE 4.0 mph 5.0 mph 54% 0.00 in 0.00 W/m2
00:34 30.7 °F 16.0 °F 30.48 in SE 4.0 mph 5.0 mph 54% 0.00 in 0.00 W/m2
00:39 30.7 °F 16.5 °F 30.48 in SE 3.0 mph 6.0 mph 55% 0.00 in 0.00 W/m2
00:44 30.7 °F 16.5 °F 30.48 in SE 4.0 mph 6.0 mph 55% 0.00 in 0.00 W/m2
00:49 30.7 °F 16.5 °F 30.49 in SSE 5.0 mph 7.0 mph 55% 0.00 in 0.00 W/m2
00:54 30.7 °F 16.9 °F 30.49 in SE 5.0 mph 7.0 mph 56% 0.00 in 0.00 W/m2
00:59 30.7 °F 16.9 °F 30.49 in ESE 4.0 mph 7.0 mph 56% 0.00 in 0.00 W/m2
01:04 30.8 °F 17.0 °F 30.49 in ESE 3.0 mph 6.0 mph 56% 0.00 in 0.00 W/m2
01:09 30.8 °F 17.0 °F 30.49 in SE 9.0 mph 9.0 mph 56% 0.00 in 0.00 W/m2
01:14 30.9 °F 17.5 °F 30.50 in SE 3.0 mph 7.0 mph 57% 0.00 in 0.00 W/m2
01:19 30.9 °F 17.5 °F 30.49 in SE 7.0 mph 11.0 mph 57% 0.00 in 0.00 W/m2
01:24 31.0 °F 17.6 °F 30.50 in ESE 5.0 mph 7.0 mph 57% 0.00 in 0.00 W/m2
01:29 31.0 °F 18.0 °F 30.50 in SE 3.0 mph 6.0 mph 58% 0.00 in 0.00 W/m2
01:34 30.9 °F 17.9 °F 30.50 in SE 8.0 mph 9.0 mph 58% 0.00 in 0.00 W/m2
01:39 30.9 °F 17.9 °F 30.50 in SE 6.0 mph 7.0 mph 58% 0.00 in 0.00 W/m2
01:44 30.9 °F 17.9 °F 30.50 in SE 8.0 mph 8.0 mph 58% 0.00 in 0.00 W/m2
01:49 31.0 °F 18.0 °F 30.50 in SSE 4.0 mph 6.0 mph 58% 0.00 in 0.00 W/m2
01:54 31.0 °F 18.0 °F 30.50 in SE 3.0 mph 6.0 mph 58% 0.00 in 0.00 W/m2
01:59 31.0 °F 18.0 °F 30.50 in East 7.0 mph 7.0 mph 58% 0.00 in 0.00 W/m2
02:04 31.0 °F 18.4 °F 30.50 in SE 6.0 mph 6.0 mph 59% 0.00 in 0.00 W/m2
02:09 31.0 °F 18.0 °F 30.49 in ESE 8.0 mph 10.0 mph 58% 0.00 in 0.00 W/m2
02:14 31.1 °F 18.1 °F 30.49 in SSE 10.0 mph 10.0 mph 58% 0.00 in 0.00 W/m2
02:19 31.1 °F 18.5 °F 30.49 in ESE 7.0 mph 8.0 mph 59% 0.00 in 0.00 W/m2
02:24 31.2 °F 18.6 °F 30.49 in SE 7.0 mph 10.0 mph 59% 0.00 in 0.00 W/m2
02:29 31.4 °F 18.8 °F 30.49 in SE 7.0 mph 13.0 mph 59% 0.00 in 0.00 W/m2
02:34 31.5 °F 18.4 °F 30.49 in SE 10.0 mph 12.0 mph 58% 0.00 in 0.00 W/m2
02:39 31.5 °F 18.4 °F 30.49 in SE 5.0 mph 10.0 mph 58% 0.00 in 0.00 W/m2
02:44 31.5 °F 18.4 °F 30.50 in South 4.0 mph 7.0 mph 58% 0.00 in 0.00 W/m2
02:49 31.6 °F 18.5 °F 30.49 in SE 7.0 mph 11.0 mph 58% 0.00 in 0.00 W/m2
02:54 31.7 °F 18.6 °F 30.50 in SE 6.0 mph 8.0 mph 58% 0.00 in 0.00 W/m2
02:59 31.8 °F 18.7 °F 30.49 in ESE 5.0 mph 9.0 mph 58% 0.00 in 0.00 W/m2
03:04 31.8 °F 18.7 °F 30.50 in SE 5.0 mph 8.0 mph 58% 0.00 in 0.00 W/m2
03:09 31.8 °F 18.7 °F 30.50 in ESE 7.0 mph 10.0 mph 58% 0.00 in 0.00 W/m2
03:14 31.8 °F 18.7 °F 30.50 in SSE 3.0 mph 7.0 mph 58% 0.00 in 0.00 W/m2
03:19 31.8 °F 18.7 °F 30.51 in ESE 5.0 mph 8.0 mph 58% 0.00 in 0.00 W/m2
03:24 31.7 °F 18.6 °F 30.50 in SE 6.0 mph 11.0 mph 58% 0.00 in 0.00 W/m2
03:29 31.7 °F 18.6 °F 30.50 in SE 2.0 mph 5.0 mph 58% 0.00 in 0.00 W/m2
03:34 31.7 °F 18.6 °F 30.50 in SSE 4.0 mph 10.0 mph 58% 0.00 in 0.00 W/m2
Albertville, Alabama, USA
Compliments of Weather Underground - 2 mb